Briggsville, Wisconsin
Current Conditions -  °F | °C
As of 4:15 PM on Saturday 25 Oct 2014 (Local Time) from KDLL Reporting Station
Clear Clear  
Wind Chill: 64°   Ceiling: Unl
Heat Index: 64°   Visibility: 10mi
Dew Point: 28°   Wind: 15mph
Humidity: 25%   Direction: 280°W
Pressure: 29.94"   Gusts: 21mph
Location:  43.65°N, 89.59°W
Report Text: KDLL 252115Z AUTO 28013G18KT 10SM CLR 18/M02 A2994 RMK AO2 T01801025
Loading
Personal Weather Stations






























Interactive Weather Map New forecast layout! Learn more

10-Day Weather Forecast

Advertisements
Track Severe Weather on mobile